Terminal Aerodrome Forecast
Issued by NWS

Home | Current Version | Previous Version | Text Only | Print | Product List | Glossary On
Versions: 1 2 3 4 5 6 7 8 9 10 11 12 13 14 15 16 17
000
FTUS43 KSGF 151120
TAFJLN
TAF
KJLN 151120Z 1512/1612 20020G28KT P6SM BKN120 WS020/23050KT
     FM151500 21022G30KT P6SM BKN150
     FM160000 27012KT P6SM OVC100
     FM160300 33014G22KT P6SM -SHRA SCT025 OVC050=

USA.gov is the U.S. government's official web portal to all federal, state and local government web resources and services.